Time;durP1;ratioP1;P1;durP2;ratioP2;P2;SDS_P1;SDS_P2;PMS_P1;PMS_P2;Temp;Humidity;BMP_temperature;BMP_pressure;BME280_temperature;BME280_humidity;BME280_pressure;Samples;Min_cycle;Max_cycle;Signal;HPM_P1;HPM_P2
2022/03/17 00:00:14;;;;;;;8.83;2.83;;;6.50;66.40;;;;;;5042852;28;20640;-76
2022/03/17 00:02:44;;;;;;;4.97;2.20;;;6.50;66.00;;;;;;5044157;28;20230;-78
2022/03/17 00:05:13;;;;;;;6.23;2.20;;;6.50;65.80;;;;;;5045574;28;20213;-79
2022/03/17 00:07:43;;;;;;;4.57;2.10;;;6.50;65.70;;;;;;5044330;28;20222;-78
2022/03/17 00:10:15;;;;;;;10.97;2.57;;;6.40;65.50;;;;;;5044123;28;20937;-78
2022/03/17 00:12:44;;;;;;;8.83;2.40;;;6.40;65.20;;;;;;5042913;28;20205;-75
2022/03/17 00:15:13;;;;;;;8.90;2.70;;;6.40;65.30;;;;;;5046180;28;20202;-75
2022/03/17 00:17:43;;;;;;;5.67;2.47;;;6.40;65.20;;;;;;5044033;28;20266;-76
2022/03/17 00:20:12;;;;;;;11.37;2.20;;;6.40;65.40;;;;;;5045340;28;20202;-78
2022/03/17 00:22:41;;;;;;;4.07;2.23;;;6.40;65.10;;;;;;5043018;28;20221;-76
2022/03/17 00:25:11;;;;;;;10.33;2.70;;;6.40;64.80;;;;;;5045056;28;20622;-76
2022/03/17 00:27:39;;;;;;;9.33;3.10;;;6.40;64.70;;;;;;5043797;28;20274;-74
2022/03/17 00:30:09;;;;;;;7.10;2.53;;;6.40;64.50;;;;;;5044784;28;20202;-76
2022/03/17 00:32:38;;;;;;;9.37;3.03;;;6.30;64.30;;;;;;5044102;28;20251;-74
2022/03/17 00:37:59;;;;;;;6.17;2.50;;;6.30;64.10;;;;;;5042987;28;20874;-77
2022/03/17 00:40:27;;;;;;;9.50;2.50;;;6.30;63.70;;;;;;5041659;28;20858;-79
2022/03/17 00:42:56;;;;;;;6.43;2.20;;;6.30;63.90;;;;;;5044438;28;20729;-77
2022/03/17 00:45:24;;;;;;;7.40;2.20;;;6.40;63.70;;;;;;5043576;28;20213;-77
2022/03/17 00:47:53;;;;;;;11.30;2.23;;;6.40;63.80;;;;;;5045288;28;20231;-77
2022/03/17 00:50:23;;;;;;;7.10;2.20;;;6.30;63.20;;;;;;5043995;28;20206;-77
2022/03/17 00:52:52;;;;;;;7.10;2.10;;;6.30;63.20;;;;;;5043767;28;20214;-77
2022/03/17 00:55:21;;;;;;;6.60;2.03;;;6.30;62.60;;;;;;5043336;28;20213;-78
2022/03/17 00:57:50;;;;;;;6.57;2.50;;;6.30;62.70;;;;;;5043721;28;20209;-79
2022/03/17 01:00:21;;;;;;;5.13;2.07;;;6.20;62.40;;;;;;5041995;28;20198;-81
2022/03/17 01:02:52;;;;;;;5.93;2.00;;;6.20;62.60;;;;;;5041925;28;20234;-77
2022/03/17 01:05:22;;;;;;;5.80;2.20;;;6.30;62.80;;;;;;5044773;28;20259;-77
2022/03/17 01:07:52;;;;;;;5.10;2.10;;;6.30;62.40;;;;;;5042861;28;20619;-80
2022/03/17 01:10:21;;;;;;;4.83;2.03;;;6.30;62.10;;;;;;5043529;28;20551;-78
2022/03/17 01:12:50;;;;;;;6.57;2.23;;;6.30;62.10;;;;;;5043174;28;20213;-77
2022/03/17 01:15:20;;;;;;;8.73;2.00;;;6.30;62.00;;;;;;5044524;28;20285;-78
2022/03/17 01:17:49;;;;;;;4.07;1.70;;;6.30;61.80;;;;;;5044173;28;20213;-77
2022/03/17 01:20:17;;;;;;;8.10;2.43;;;6.30;61.80;;;;;;5043851;28;20202;-77
2022/03/17 01:22:47;;;;;;;6.17;2.13;;;6.20;61.50;;;;;;5042347;28;20198;-79
2022/03/17 01:25:15;;;;;;;3.87;1.90;;;6.20;61.60;;;;;;5043768;28;20334;-77
2022/03/17 01:27:44;;;;;;;5.03;2.00;;;6.20;61.50;;;;;;5042971;28;20257;-77
2022/03/17 01:30:13;;;;;;;6.60;1.73;;;6.20;61.60;;;;;;5043305;28;20202;-76
2022/03/17 01:32:41;;;;;;;5.63;2.53;;;6.20;61.80;;;;;;5043974;28;20237;-76
2022/03/17 01:35:11;;;;;;;5.50;2.43;;;6.10;61.20;;;;;;5044931;28;20247;-76
2022/03/17 01:37:39;;;;;;;7.37;1.87;;;6.10;61.50;;;;;;5043068;28;20208;-77
2022/03/17 01:40:10;;;;;;;5.17;1.90;;;6.10;61.60;;;;;;5043394;28;20209;-78
2022/03/17 01:42:39;;;;;;;6.57;2.37;;;6.10;61.50;;;;;;5042913;28;20194;-78
2022/03/17 01:45:09;;;;;;;6.57;2.40;;;6.10;61.70;;;;;;5043470;28;20268;-76
2022/03/17 01:47:38;;;;;;;4.33;2.27;;;6.00;61.80;;;;;;5043923;28;20244;-78
2022/03/17 01:50:09;;;;;;;3.90;1.73;;;6.10;61.60;;;;;;5043816;28;20261;-80
2022/03/17 01:52:38;;;;;;;5.37;2.03;;;6.00;61.40;;;;;;5042679;28;20195;-79
2022/03/17 01:55:10;;;;;;;6.20;2.33;;;6.10;61.50;;;;;;5042841;28;20235;-78
2022/03/17 01:57:39;;;;;;;4.97;2.17;;;6.10;61.70;;;;;;5041851;28;20891;-78
2022/03/17 02:00:13;;;;;;;4.10;2.50;;;6.00;61.60;;;;;;5042279;28;20292;-78
2022/03/17 02:02:41;;;;;;;3.73;2.00;;;6.00;61.60;;;;;;5040742;28;20726;-79
2022/03/17 02:05:10;;;;;;;4.57;2.03;;;6.00;61.60;;;;;;5042700;28;20202;-78
2022/03/17 02:07:41;;;;;;;3.80;1.80;;;5.90;61.80;;;;;;5042392;28;20201;-78
2022/03/17 02:10:11;;;;;;;4.17;1.90;;;5.90;61.80;;;;;;5043327;28;20200;-79
2022/03/17 02:15:27;;;;;;;2.77;1.80;;;5.90;61.50;;;;;;5042854;28;20209;-77
2022/03/17 02:17:56;;;;;;;2.67;1.77;;;5.90;61.60;;;;;;5042276;28;20304;-76
2022/03/17 02:20:25;;;;;;;4.30;2.20;;;5.90;61.80;;;;;;5041545;28;20210;-78
2022/03/17 02:25:33;;;;;;;6.87;2.23;;;5.90;62.00;;;;;;5040709;28;20711;-78
2022/03/17 02:25:47;;;;;;;5.37;2.30;;;5.80;61.80;;;;;;5042052;28;20267;-78
2022/03/17 02:28:16;;;;;;;4.10;2.10;;;5.80;61.90;;;;;;5041288;28;20193;-78
2022/03/17 02:30:45;;;;;;;3.63;1.97;;;5.80;62.20;;;;;;5042645;28;20193;-77
2022/03/17 02:33:16;;;;;;;4.53;1.60;;;5.80;62.10;;;;;;5042697;28;20205;-80
2022/03/17 02:35:47;;;;;;;5.00;2.00;;;5.80;62.20;;;;;;5042085;28;20197;-77
2022/03/17 02:38:16;;;;;;;8.23;2.40;;;5.70;62.20;;;;;;5043508;28;20197;-78
2022/03/17 02:40:48;;;;;;;4.63;1.83;;;5.70;62.10;;;;;;5042460;28;20208;-77
2022/03/17 02:43:17;;;;;;;5.03;2.10;;;5.70;62.30;;;;;;5041266;28;20256;-77
2022/03/17 02:45:46;;;;;;;5.33;2.00;;;5.70;62.50;;;;;;5041965;28;20896;-78
2022/03/17 02:48:15;;;;;;;5.40;2.20;;;5.70;62.40;;;;;;5042278;28;20293;-75
2022/03/17 02:50:43;;;;;;;5.90;2.30;;;5.70;62.50;;;;;;5042373;28;20201;-77
2022/03/17 02:53:13;;;;;;;4.50;2.10;;;5.60;62.40;;;;;;5042528;28;20689;-78
2022/03/17 02:55:43;;;;;;;7.90;2.60;;;5.60;62.50;;;;;;5042660;28;20252;-77
2022/03/17 02:58:14;;;;;;;6.37;2.23;;;5.60;62.50;;;;;;5044440;28;20209;-78
2022/03/17 03:00:42;;;;;;;6.90;2.50;;;5.60;62.80;;;;;;5043277;28;20198;-76
2022/03/17 03:03:13;;;;;;;5.63;2.10;;;5.60;62.70;;;;;;5044135;28;20235;-76
2022/03/17 03:05:42;;;;;;;7.63;2.30;;;5.60;62.50;;;;;;5042642;28;20650;-78
2022/03/17 03:08:10;;;;;;;7.90;2.07;;;5.50;62.70;;;;;;5043379;28;20228;-76
2022/03/17 03:10:38;;;;;;;6.43;2.13;;;5.60;62.80;;;;;;5041003;28;20204;-77
2022/03/17 03:13:07;;;;;;;5.23;2.30;;;5.60;62.90;;;;;;5038750;28;20193;-76
2022/03/17 03:15:37;;;;;;;5.57;2.40;;;5.60;62.70;;;;;;5042378;28;20229;-78
2022/03/17 03:18:05;;;;;;;6.70;2.07;;;5.60;62.50;;;;;;5041424;28;20202;-77
2022/03/17 03:20:34;;;;;;;3.70;2.10;;;5.60;62.60;;;;;;5043087;28;20194;-75
2022/03/17 03:23:02;;;;;;;6.30;1.90;;;5.60;62.70;;;;;;5040948;28;20206;-76
2022/03/17 03:25:31;;;;;;;4.40;2.00;;;5.60;62.70;;;;;;5041025;28;20210;-76
2022/03/17 03:28:06;;;;;;;4.93;2.33;;;5.60;62.50;;;;;;5041823;28;21105;-77
2022/03/17 03:30:36;;;;;;;5.73;2.30;;;5.50;62.70;;;;;;5042753;28;20759;-77
2022/03/17 03:33:07;;;;;;;4.20;2.23;;;5.60;62.80;;;;;;5041516;28;20193;-79
2022/03/17 03:38:22;;;;;;;4.20;2.10;;;5.60;63.00;;;;;;5044289;28;20208;-77
2022/03/17 03:40:50;;;;;;;10.87;2.30;;;5.60;62.80;;;;;;5044144;28;20918;-78
2022/03/17 03:43:19;;;;;;;9.03;2.20;;;5.60;63.10;;;;;;5044776;28;20361;-76
2022/03/17 03:45:50;;;;;;;4.20;1.83;;;5.60;63.30;;;;;;5045350;28;20200;-77
2022/03/17 03:48:18;;;;;;;8.23;2.10;;;5.60;63.30;;;;;;5045932;28;21075;-77
2022/03/17 03:50:47;;;;;;;6.40;2.33;;;5.60;63.40;;;;;;5044911;28;21560;-78
2022/03/17 03:53:15;;;;;;;6.57;2.40;;;5.50;63.40;;;;;;5044855;28;20202;-77
2022/03/17 03:55:44;;;;;;;6.67;2.13;;;5.50;63.40;;;;;;5043994;28;20221;-77
2022/03/17 03:58:12;;;;;;;5.17;2.00;;;5.50;63.70;;;;;;5045422;28;20333;-76
2022/03/17 04:00:41;;;;;;;6.10;2.20;;;5.60;63.90;;;;;;5042871;28;20201;-77
2022/03/17 04:03:11;;;;;;;6.87;2.27;;;5.50;64.10;;;;;;5044866;28;20235;-76
2022/03/17 04:05:40;;;;;;;10.60;3.07;;;5.50;64.20;;;;;;5043418;28;20285;-76
2022/03/17 04:08:09;;;;;;;5.07;2.03;;;5.50;64.10;;;;;;5045349;28;20208;-75
2022/03/17 04:10:37;;;;;;;6.83;2.40;;;5.60;64.40;;;;;;5044905;28;20267;-78
2022/03/17 04:13:06;;;;;;;6.53;2.37;;;5.60;64.50;;;;;;5044258;28;20205;-76
2022/03/17 04:15:34;;;;;;;5.37;2.53;;;5.60;64.60;;;;;;5044347;28;20929;-78
2022/03/17 04:18:02;;;;;;;4.63;2.10;;;5.60;64.60;;;;;;5044289;28;20210;-78
2022/03/17 04:20:34;;;;;;;4.53;2.17;;;5.60;64.50;;;;;;5044285;28;20914;-77
2022/03/17 04:23:02;;;;;;;4.53;2.20;;;5.70;64.60;;;;;;5045237;28;20700;-76
2022/03/17 04:25:30;;;;;;;6.77;2.83;;;5.70;64.60;;;;;;5044886;28;20189;-75
2022/03/17 04:27:59;;;;;;;6.83;2.60;;;5.70;64.40;;;;;;5041707;28;20205;-76
2022/03/17 04:30:27;;;;;;;7.07;2.43;;;5.70;64.60;;;;;;5043486;28;20200;-77
2022/03/17 04:32:56;;;;;;;6.07;2.17;;;5.70;64.50;;;;;;5042808;28;20210;-76
2022/03/17 04:35:24;;;;;;;6.30;2.43;;;5.60;64.60;;;;;;5044511;28;20227;-76
2022/03/17 04:37:54;;;;;;;5.83;2.73;;;5.70;64.70;;;;;;5045011;28;20288;-77
2022/03/17 04:40:23;;;;;;;4.77;2.63;;;5.60;64.80;;;;;;5043216;28;20219;-77
2022/03/17 04:42:51;;;;;;;8.07;2.67;;;5.60;64.90;;;;;;5042531;28;20246;-78
2022/03/17 04:45:20;;;;;;;5.20;2.30;;;5.60;65.10;;;;;;5044736;28;20199;-77
2022/03/17 04:47:48;;;;;;;4.63;2.43;;;5.50;65.30;;;;;;5043634;28;20239;-77
2022/03/17 04:50:17;;;;;;;5.60;2.40;;;5.50;65.50;;;;;;5045031;28;20201;-78
2022/03/17 04:55:32;;;;;;;5.50;2.90;;;5.40;65.90;;;;;;5044457;28;20210;-76
2022/03/17 04:58:00;;;;;;;6.23;2.73;;;5.40;66.10;;;;;;5045749;28;20205;-78
2022/03/17 05:00:29;;;;;;;5.03;2.40;;;5.40;66.40;;;;;;5044200;28;20202;-79
2022/03/17 05:02:57;;;;;;;6.00;2.50;;;5.50;66.50;;;;;;5045016;28;20328;-78
2022/03/17 05:05:29;;;;;;;4.20;2.30;;;5.50;66.50;;;;;;5043768;28;20240;-79
2022/03/17 05:07:57;;;;;;;5.73;2.90;;;5.50;66.40;;;;;;5044193;28;20201;-78
2022/03/17 05:10:28;;;;;;;11.33;2.93;;;5.50;66.20;;;;;;5045276;28;20208;-78
2022/03/17 05:13:04;;;;;;;5.10;2.60;;;5.60;66.20;;;;;;5046292;28;20196;-78
2022/03/17 05:15:33;;;;;;;6.97;2.53;;;5.60;66.20;;;;;;5045540;28;20213;-77
2022/03/17 05:18:02;;;;;;;6.27;2.23;;;5.60;66.00;;;;;;5044206;28;20209;-77
2022/03/17 05:20:30;;;;;;;4.53;2.40;;;5.60;66.10;;;;;;5043595;28;20191;-78
2022/03/17 05:22:59;;;;;;;7.40;2.87;;;5.60;66.20;;;;;;5044284;28;20945;-80
2022/03/17 05:25:27;;;;;;;6.77;2.33;;;5.70;66.30;;;;;;5043465;28;20229;-77
2022/03/17 05:27:55;;;;;;;7.73;2.70;;;5.70;66.20;;;;;;5044923;28;20205;-79
2022/03/17 05:30:26;;;;;;;9.50;3.17;;;5.70;66.20;;;;;;5044022;28;20212;-77
2022/03/17 05:32:54;;;;;;;8.43;2.57;;;5.70;66.20;;;;;;5044636;28;20197;-77
2022/03/17 05:35:23;;;;;;;7.03;2.77;;;5.80;66.20;;;;;;5045370;28;20235;-79
2022/03/17 05:37:51;;;;;;;6.97;3.20;;;5.80;66.80;;;;;;5044967;28;20198;-76
2022/03/17 05:40:21;;;;;;;6.33;2.80;;;5.80;66.60;;;;;;5042150;28;20196;-77
2022/03/17 05:42:52;;;;;;;5.87;2.57;;;5.80;66.60;;;;;;5042920;28;20210;-77
2022/03/17 05:45:21;;;;;;;8.13;3.13;;;5.90;66.30;;;;;;5042827;28;20202;-77
2022/03/17 05:47:52;;;;;;;6.17;2.70;;;5.90;66.30;;;;;;5044526;28;20205;-77
2022/03/17 05:50:22;;;;;;;5.83;2.60;;;6.00;66.20;;;;;;5042692;28;20208;-77
2022/03/17 05:52:50;;;;;;;10.17;2.73;;;6.00;66.00;;;;;;5042804;28;20194;-78
2022/03/17 05:55:20;;;;;;;5.00;2.03;;;6.10;65.80;;;;;;5042133;28;20780;-78
2022/03/17 05:57:50;;;;;;;8.50;2.80;;;6.10;65.60;;;;;;5043585;28;20210;-77
2022/03/17 06:00:23;;;;;;;7.50;3.00;;;6.10;65.50;;;;;;5043004;28;20210;-80
2022/03/17 06:02:53;;;;;;;5.60;2.13;;;6.10;65.20;;;;;;5040802;28;20229;-81
2022/03/17 06:05:23;;;;;;;7.40;2.70;;;6.10;64.90;;;;;;5043069;28;20202;-81
2022/03/17 06:07:54;;;;;;;6.20;2.63;;;6.20;65.00;;;;;;5041027;28;20202;-79
2022/03/17 06:10:25;;;;;;;7.07;2.70;;;6.20;65.00;;;;;;5041199;28;20199;-77
2022/03/17 06:12:53;;;;;;;5.13;2.93;;;6.20;64.90;;;;;;5042700;28;20325;-78
2022/03/17 06:15:23;;;;;;;6.50;3.03;;;6.20;65.00;;;;;;5042748;28;20203;-78
2022/03/17 06:17:55;;;;;;;6.37;3.33;;;6.20;64.90;;;;;;5042263;28;20287;-77
2022/03/17 06:20:26;;;;;;;6.47;3.10;;;6.30;64.90;;;;;;5042707;28;20202;-77
2022/03/17 06:22:56;;;;;;;6.43;2.70;;;6.30;64.80;;;;;;5043000;28;20846;-76
2022/03/17 06:25:26;;;;;;;6.63;2.83;;;6.40;65.00;;;;;;5042750;28;20209;-80
2022/03/17 06:27:54;;;;;;;5.70;2.70;;;6.40;64.80;;;;;;5041736;28;20206;-76
2022/03/17 06:30:24;;;;;;;9.67;4.10;;;6.40;64.50;;;;;;5043694;28;20199;-75
2022/03/17 06:32:55;;;;;;;6.67;2.63;;;6.50;64.70;;;;;;5043541;28;20222;-77
2022/03/17 06:35:26;;;;;;;9.97;2.93;;;6.60;64.60;;;;;;5042193;28;20202;-77
2022/03/17 06:37:56;;;;;;;5.97;2.20;;;6.60;64.70;;;;;;5043849;28;20507;-78
2022/03/17 06:40:26;;;;;;;5.80;2.80;;;6.70;64.60;;;;;;5042303;28;20195;-77
2022/03/17 06:42:55;;;;;;;11.00;3.83;;;6.70;64.40;;;;;;5041867;28;20199;-77
2022/03/17 06:45:24;;;;;;;9.53;3.30;;;6.80;64.20;;;;;;5040961;28;20223;-79
2022/03/17 06:47:55;;;;;;;7.03;3.13;;;6.80;63.60;;;;;;5042131;28;20214;-79
2022/03/17 06:50:24;;;;;;;6.63;2.90;;;6.90;64.00;;;;;;5042965;28;20206;-79
2022/03/17 06:52:54;;;;;;;8.87;2.93;;;7.00;63.80;;;;;;5042340;28;20307;-77
2022/03/17 06:55:23;;;;;;;10.53;2.83;;;7.10;63.70;;;;;;5044120;28;20206;-79
2022/03/17 06:57:52;;;;;;;6.10;2.27;;;7.20;63.60;;;;;;5042618;28;20282;-79
2022/03/17 07:00:21;;;;;;;5.00;2.53;;;7.20;63.40;;;;;;5042696;28;20207;-78
2022/03/17 07:02:49;;;;;;;6.83;2.63;;;7.30;63.50;;;;;;5041817;28;21367;-80
2022/03/17 07:05:19;;;;;;;7.43;3.30;;;7.40;63.10;;;;;;5040478;28;20216;-79
2022/03/17 07:07:48;;;;;;;4.97;2.20;;;7.50;63.00;;;;;;5043385;28;20189;-80
2022/03/17 07:10:16;;;;;;;9.87;3.93;;;7.60;62.80;;;;;;5044338;28;20201;-78
2022/03/17 07:12:47;;;;;;;14.27;4.40;;;7.60;62.30;;;;;;5046738;28;20209;-77
2022/03/17 07:15:15;;;;;;;11.73;4.33;;;7.70;62.10;;;;;;5047495;28;20201;-78
2022/03/17 07:17:43;;;;;;;10.33;4.43;;;7.80;61.80;;;;;;5045391;28;20221;-77
2022/03/17 07:20:13;;;;;;;11.60;4.80;;;7.90;60.70;;;;;;5047406;28;20290;-76
2022/03/17 07:22:46;;;;;;;13.40;5.73;;;8.00;60.60;;;;;;5044142;28;20663;-76
2022/03/17 07:25:17;;;;;;;8.67;2.73;;;8.20;60.50;;;;;;5047252;28;20205;-76
2022/03/17 07:27:47;;;;;;;13.13;5.50;;;8.20;59.40;;;;;;5046038;28;20951;-77
2022/03/17 07:30:18;;;;;;;9.43;3.13;;;8.30;59.30;;;;;;5046640;28;20190;-78
2022/03/17 07:32:48;;;;;;;9.40;4.13;;;8.40;59.30;;;;;;5044933;28;21190;-79
2022/03/17 07:35:17;;;;;;;6.33;3.07;;;8.50;59.40;;;;;;5047429;28;20213;-78
2022/03/17 07:37:47;;;;;;;5.87;3.27;;;8.60;58.90;;;;;;5048999;28;20232;-77
2022/03/17 07:40:15;;;;;;;7.13;2.97;;;8.60;58.30;;;;;;5046482;28;21182;-74
2022/03/17 07:42:44;;;;;;;3.83;2.10;;;8.70;58.10;;;;;;5047696;28;20225;-74
2022/03/17 07:45:12;;;;;;;7.00;2.37;;;8.80;57.50;;;;;;5045306;28;20208;-74
2022/03/17 07:47:45;;;;;;;7.93;2.57;;;8.90;57.60;;;;;;5046840;28;20225;-74
2022/03/17 07:50:14;;;;;;;10.67;2.77;;;8.90;57.10;;;;;;5046906;28;20197;-74
2022/03/17 07:52:42;;;;;;;3.63;1.80;;;9.00;56.50;;;;;;5046920;28;20194;-75
2022/03/17 07:55:13;;;;;;;3.73;2.13;;;9.00;55.60;;;;;;5048692;28;20202;-75
2022/03/17 07:57:41;;;;;;;7.23;2.90;;;9.10;55.90;;;;;;5045545;28;20218;-75
2022/03/17 08:00:12;;;;;;;8.43;3.30;;;9.20;55.00;;;;;;5046614;28;20217;-75
2022/03/17 08:02:41;;;;;;;9.13;3.27;;;9.20;54.30;;;;;;5045116;28;20240;-75
2022/03/17 08:05:10;;;;;;;6.03;2.50;;;9.30;54.80;;;;;;5047663;28;20199;-75
2022/03/17 08:07:39;;;;;;;5.90;2.70;;;9.30;54.90;;;;;;5047405;28;20195;-74
2022/03/17 08:10:09;;;;;;;7.77;2.40;;;9.30;54.00;;;;;;5047260;28;20199;-76
2022/03/17 08:12:39;;;;;;;5.37;2.23;;;9.30;54.50;;;;;;5045957;28;20198;-74
2022/03/17 08:15:07;;;;;;;3.87;2.00;;;9.40;53.00;;;;;;5047067;28;20205;-74
2022/03/17 08:17:36;;;;;;;9.87;2.20;;;9.50;52.10;;;;;;5046780;28;20219;-75
2022/03/17 08:20:06;;;;;;;5.80;2.47;;;9.50;52.20;;;;;;5046723;28;20202;-78
2022/03/17 08:22:35;;;;;;;7.30;3.60;;;9.60;51.80;;;;;;5044723;28;20191;-79
2022/03/17 08:25:04;;;;;;;5.97;2.37;;;9.60;51.70;;;;;;5045925;28;20212;-76
2022/03/17 08:27:32;;;;;;;5.40;2.20;;;9.70;51.10;;;;;;5045049;28;20195;-77
2022/03/17 08:30:05;;;;;;;7.87;2.20;;;9.70;50.80;;;;;;5044569;28;20201;-79
2022/03/17 08:32:33;;;;;;;6.00;2.50;;;9.80;50.80;;;;;;5046454;28;20921;-76
2022/03/17 08:35:02;;;;;;;11.17;2.13;;;9.80;50.30;;;;;;5045475;28;20194;-75
2022/03/17 08:37:31;;;;;;;7.90;2.50;;;9.80;49.90;;;;;;5044549;28;20221;-77
2022/03/17 08:39:59;;;;;;;4.83;2.33;;;9.90;50.20;;;;;;5045082;28;20203;-74
2022/03/17 08:42:28;;;;;;;7.73;2.40;;;9.80;50.60;;;;;;5043930;28;20203;-75
2022/03/17 08:44:56;;;;;;;8.60;2.40;;;10.00;51.00;;;;;;5043697;28;20194;-75
2022/03/17 08:50:12;;;;;;;6.93;2.37;;;10.00;49.70;;;;;;5045323;28;20195;-77
2022/03/17 08:52:40;;;;;;;5.90;2.53;;;10.10;49.30;;;;;;5044027;28;20198;-77
2022/03/17 08:55:10;;;;;;;7.97;2.33;;;10.20;49.90;;;;;;5046290;28;20206;-77
2022/03/17 08:57:39;;;;;;;9.13;3.40;;;10.20;49.40;;;;;;5044105;28;20207;-74
2022/03/17 09:00:08;;;;;;;4.63;2.17;;;10.30;48.40;;;;;;5043543;28;20218;-77
2022/03/17 09:02:44;;;;;;;8.27;3.57;;;10.30;48.40;;;;;;5043996;28;20865;-76
2022/03/17 09:05:13;;;;;;;5.33;2.40;;;10.40;48.00;;;;;;5043776;28;20252;-75
2022/03/17 09:07:41;;;;;;;8.67;3.63;;;10.40;47.00;;;;;;5044605;28;20199;-75
2022/03/17 09:10:10;;;;;;;5.77;2.77;;;10.50;47.50;;;;;;5044239;28;20233;-75
2022/03/17 09:12:38;;;;;;;4.33;2.30;;;10.50;47.40;;;;;;5044747;28;20194;-76
2022/03/17 09:15:08;;;;;;;4.33;2.30;;;10.60;46.90;;;;;;5044419;28;20191;-75
2022/03/17 09:17:42;;;;;;;6.50;2.40;;;10.60;46.80;;;;;;5044843;28;20261;-73
2022/03/17 09:20:15;;;;;;;5.53;2.67;;;10.70;46.50;;;;;;5044756;28;20195;-73
2022/03/17 09:22:44;;;;;;;7.47;2.03;;;10.80;46.30;;;;;;5043464;28;20729;-72
2022/03/17 09:25:13;;;;;;;5.27;2.70;;;10.90;46.00;;;;;;5044614;28;20883;-73
2022/03/17 09:27:44;;;;;;;5.17;2.70;;;11.00;46.20;;;;;;5043822;28;20550;-75
2022/03/17 09:30:13;;;;;;;4.97;2.20;;;11.00;46.30;;;;;;5044827;28;20983;-77
2022/03/17 09:32:44;;;;;;;6.20;2.30;;;11.10;46.30;;;;;;5043820;28;20206;-77
2022/03/17 09:35:13;;;;;;;10.10;2.60;;;11.00;45.50;;;;;;5046432;28;20198;-74
2022/03/17 09:37:42;;;;;;;4.57;3.00;;;11.00;45.20;;;;;;5044209;28;21038;-75
2022/03/17 09:40:14;;;;;;;4.47;2.30;;;11.10;45.10;;;;;;5045022;28;20197;-76
2022/03/17 09:42:47;;;;;;;6.43;2.67;;;11.20;44.70;;;;;;5045503;28;20187;-74
2022/03/17 09:45:20;;;;;;;5.10;2.20;;;11.20;45.00;;;;;;5043382;28;20205;-75
2022/03/17 09:47:50;;;;;;;5.40;2.73;;;11.30;44.70;;;;;;5044930;28;20198;-76
2022/03/17 09:50:19;;;;;;;5.83;2.37;;;11.30;45.00;;;;;;5044756;28;20203;-76
2022/03/17 09:52:49;;;;;;;4.27;2.50;;;11.30;45.00;;;;;;5044750;28;20191;-75
2022/03/17 09:55:22;;;;;;;4.67;2.20;;;11.40;44.90;;;;;;5043026;28;20206;-76
2022/03/17 09:57:50;;;;;;;4.73;2.20;;;11.40;44.30;;;;;;5044841;28;20206;-76
2022/03/17 10:00:19;;;;;;;7.10;2.90;;;11.50;44.80;;;;;;5043539;28;20202;-76
2022/03/17 10:02:49;;;;;;;6.23;2.63;;;11.50;44.80;;;;;;5041364;28;20226;-75
2022/03/17 10:05:21;;;;;;;5.77;3.20;;;11.60;45.00;;;;;;5042519;28;20194;-75
2022/03/17 10:07:52;;;;;;;5.50;2.87;;;11.70;45.30;;;;;;5044757;28;20190;-76
2022/03/17 10:10:21;;;;;;;3.83;2.30;;;11.80;45.70;;;;;;5043045;28;20182;-77
2022/03/17 10:13:10;;;;;;;3.33;2.03;;;11.90;45.20;;;;;;5043100;28;20252;-77
2022/03/17 10:15:49;;;;;;;3.23;2.00;;;12.00;44.70;;;;;;5043183;28;20263;-77
2022/03/17 10:18:24;;;;;;;6.80;2.40;;;12.00;43.50;;;;;;5043935;28;20206;-77
2022/03/17 10:21:08;;;;;;;3.43;2.13;;;12.10;43.40;;;;;;5043353;28;20268;-78
2022/03/17 10:23:45;;;;;;;8.73;2.33;;;12.10;43.10;;;;;;5042889;28;20271;-77
2022/03/17 10:26:37;;;;;;;5.50;2.27;;;12.20;43.20;;;;;;5041409;28;20661;-77
2022/03/17 10:29:12;;;;;;;7.40;2.37;;;12.20;43.10;;;;;;5042187;28;20286;-76
2022/03/17 10:31:58;;;;;;;6.40;2.77;;;12.20;41.50;;;;;;5043783;28;20201;-75
2022/03/17 10:34:31;;;;;;;3.00;2.07;;;12.20;42.10;;;;;;5042785;28;20652;-76
2022/03/17 10:37:10;;;;;;;6.17;1.90;;;12.20;42.10;;;;;;5041982;28;20195;-76
2022/03/17 10:39:42;;;;;;;2.97;1.90;;;12.20;41.50;;;;;;5041385;28;20892;-75
2022/03/17 10:42:16;;;;;;;6.97;2.47;;;12.30;41.20;;;;;;5042375;28;20191;-76
2022/03/17 10:44:49;;;;;;;4.50;2.10;;;12.30;41.50;;;;;;5045311;28;20918;-77
2022/03/17 10:47:24;;;;;;;5.67;2.23;;;12.30;41.90;;;;;;5049703;28;20198;-78
2022/03/17 10:50:11;;;;;;;4.27;2.47;;;12.30;42.00;;;;;;5048167;28;20198;-76
2022/03/17 10:52:51;;;;;;;4.40;2.17;;;12.30;41.80;;;;;;5049324;28;20194;-76
2022/03/17 10:55:22;;;;;;;4.70;1.93;;;12.20;41.10;;;;;;5049956;28;20205;-77
2022/03/17 10:57:51;;;;;;;5.50;2.00;;;12.30;41.80;;;;;;5049950;28;20191;-75
2022/03/17 11:00:22;;;;;;;4.97;2.10;;;12.40;41.40;;;;;;5049353;28;20200;-76
2022/03/17 11:02:57;;;;;;;5.50;2.57;;;12.50;41.80;;;;;;5047870;28;20583;-77
2022/03/17 11:05:28;;;;;;;6.07;2.07;;;12.40;41.50;;;;;;5046487;28;20201;-75
2022/03/17 11:07:58;;;;;;;8.80;2.27;;;12.40;40.90;;;;;;5049844;28;20918;-76
2022/03/17 11:10:27;;;;;;;4.33;2.50;;;12.30;40.80;;;;;;5049442;28;20222;-76
2022/03/17 11:12:56;;;;;;;5.47;2.17;;;12.30;41.00;;;;;;5048852;28;20241;-77
2022/03/17 11:15:29;;;;;;;4.53;2.40;;;12.30;41.20;;;;;;5045548;28;20203;-77
2022/03/17 11:18:03;;;;;;;6.20;2.40;;;12.30;41.50;;;;;;5046831;28;20193;-76
2022/03/17 11:20:34;;;;;;;5.97;2.63;;;12.20;40.50;;;;;;5047047;28;20247;-79
2022/03/17 11:23:19;;;;;;;5.27;2.87;;;12.20;40.90;;;;;;5048015;28;20204;-77
2022/03/17 11:25:54;;;;;;;9.17;4.53;;;12.20;40.90;;;;;;5047428;28;20289;-76
2022/03/17 11:28:33;;;;;;;5.20;2.37;;;12.30;41.40;;;;;;5048066;28;20797;-77
2022/03/17 11:31:05;;;;;;;4.60;2.90;;;12.30;41.70;;;;;;5048194;28;20195;-77
2022/03/17 11:33:37;;;;;;;8.03;2.60;;;12.30;41.40;;;;;;5046301;28;20922;-77
2022/03/17 11:36:21;;;;;;;5.63;2.93;;;12.40;41.60;;;;;;5047230;28;20660;-76
2022/03/17 11:38:56;;;;;;;5.57;2.60;;;12.40;40.90;;;;;;5047010;28;20297;-76
2022/03/17 11:41:26;;;;;;;5.17;2.53;;;12.50;40.80;;;;;;5047246;28;20189;-77
2022/03/17 11:44:04;;;;;;;6.97;2.73;;;12.50;40.70;;;;;;5048133;28;20719;-77
2022/03/17 11:46:45;;;;;;;7.67;2.50;;;12.50;40.90;;;;;;5046874;28;20207;-78
2022/03/17 11:49:19;;;;;;;5.03;2.37;;;12.60;41.10;;;;;;5048024;28;20221;-76
2022/03/17 11:52:00;;;;;;;5.20;2.70;;;12.50;39.90;;;;;;5047286;28;20199;-77
2022/03/17 11:54:31;;;;;;;4.80;2.57;;;12.50;39.70;;;;;;5049074;28;20205;-77
2022/03/17 11:57:06;;;;;;;9.17;2.93;;;12.50;39.90;;;;;;5044472;28;20208;-79
2022/03/17 11:59:51;;;;;;;6.50;2.63;;;12.40;38.90;;;;;;5043253;28;20195;-77
2022/03/17 12:02:29;;;;;;;4.67;2.80;;;12.40;39.30;;;;;;5043384;28;20202;-78
2022/03/17 12:05:11;;;;;;;4.50;2.57;;;12.50;40.00;;;;;;5044194;28;20839;-80
2022/03/17 12:07:49;;;;;;;5.37;2.17;;;12.50;39.40;;;;;;5043308;28;20209;-78
2022/03/17 12:10:57;;;;;;;5.10;2.60;;;12.60;39.20;;;;;;5042389;28;20579;-78
2022/03/17 12:13:27;;;;;;;4.77;2.30;;;12.50;38.70;;;;;;5041087;28;20221;-78
2022/03/17 12:15:57;;;;;;;4.33;2.63;;;12.60;39.10;;;;;;5045791;28;20289;-78
2022/03/17 12:18:27;;;;;;;7.33;3.00;;;12.60;39.10;;;;;;5046126;28;20198;-79
2022/03/17 12:20:57;;;;;;;8.57;3.00;;;12.60;39.30;;;;;;5045461;28;20199;-78
2022/03/17 12:23:46;;;;;;;6.10;3.10;;;12.70;39.70;;;;;;5043819;28;20202;-77
2022/03/17 12:26:19;;;;;;;5.90;2.53;;;12.80;39.70;;;;;;5043768;28;20653;-76
2022/03/17 12:28:48;;;;;;;8.03;2.90;;;12.90;39.70;;;;;;5044129;28;20202;-78
2022/03/17 12:31:17;;;;;;;5.63;3.13;;;12.80;39.10;;;;;;5044368;28;20190;-76
2022/03/17 12:33:46;;;;;;;5.00;3.00;;;12.80;39.20;;;;;;5043204;28;20198;-76
2022/03/17 12:36:16;;;;;;;8.17;3.10;;;12.70;38.70;;;;;;5044486;28;20199;-75
2022/03/17 12:38:49;;;;;;;9.70;3.73;;;12.70;39.40;;;;;;5043363;28;20652;-75
2022/03/17 12:41:19;;;;;;;5.13;3.23;;;12.70;39.50;;;;;;5042904;28;20205;-76
2022/03/17 12:43:51;;;;;;;6.07;3.33;;;12.70;39.70;;;;;;5043585;28;20201;-77
2022/03/17 12:46:19;;;;;;;9.27;3.47;;;12.70;40.00;;;;;;5043678;28;20202;-76
2022/03/17 12:48:48;;;;;;;8.90;3.23;;;12.60;39.40;;;;;;5043268;28;20208;-78
2022/03/17 12:51:22;;;;;;;6.70;3.03;;;12.50;39.80;;;;;;5040990;28;20191;-77
2022/03/17 12:53:52;;;;;;;7.33;3.47;;;12.50;40.20;;;;;;5042927;28;20207;-77
2022/03/17 12:56:20;;;;;;;6.20;3.10;;;12.50;40.30;;;;;;5043206;28;20198;-77
2022/03/17 12:58:49;;;;;;;8.50;4.10;;;12.40;40.00;;;;;;5043241;28;20199;-78
2022/03/17 13:01:18;;;;;;;8.33;3.53;;;12.40;40.00;;;;;;5042888;28;20198;-78
2022/03/17 13:03:48;;;;;;;6.00;3.00;;;12.40;39.80;;;;;;5041280;28;20952;-78
2022/03/17 13:09:12;;;;;;;4.87;2.50;;;12.40;39.30;;;;;;5041764;28;20195;-78
2022/03/17 13:14:28;;;;;;;5.90;2.90;;;12.30;39.20;;;;;;5042891;28;20198;-79
2022/03/17 13:17:01;;;;;;;6.60;3.10;;;12.30;39.40;;;;;;5042176;28;20205;-78
2022/03/17 13:19:31;;;;;;;6.77;3.20;;;12.30;39.60;;;;;;5044218;28;20214;-77
2022/03/17 13:22:07;;;;;;;7.10;2.80;;;12.30;39.40;;;;;;5043326;28;20194;-78
2022/03/17 13:24:37;;;;;;;6.03;3.03;;;12.30;39.40;;;;;;5043938;28;20855;-77
2022/03/17 13:27:12;;;;;;;6.90;3.33;;;12.30;39.70;;;;;;5044354;28;20202;-79
2022/03/17 13:29:56;;;;;;;6.03;2.90;;;12.20;40.00;;;;;;5043962;28;20186;-77